sensor_id;sensor_type;location;lat;lon;timestamp;temperature;humidity
3308;DHT22;1666;48.898;9.182;2023-07-13T00:00:03;20.60;1.00
3308;DHT22;1666;48.898;9.182;2023-07-13T00:02:36;20.50;1.00
3308;DHT22;1666;48.898;9.182;2023-07-13T00:05:09;20.40;1.00
3308;DHT22;1666;48.898;9.182;2023-07-13T00:07:39;20.30;1.00
3308;DHT22;1666;48.898;9.182;2023-07-13T00:10:09;20.40;1.00
3308;DHT22;1666;48.898;9.182;2023-07-13T00:12:40;20.30;1.00
3308;DHT22;1666;48.898;9.182;2023-07-13T00:15:13;20.20;1.00
3308;DHT22;1666;48.898;9.182;2023-07-13T00:17:43;20.10;1.00
3308;DHT22;1666;48.898;9.182;2023-07-13T00:20:17;20.10;1.00
3308;DHT22;1666;48.898;9.182;2023-07-13T00:22:49;20.00;1.00
3308;DHT22;1666;48.898;9.182;2023-07-13T00:25:21;19.90;1.00
3308;DHT22;1666;48.898;9.182;2023-07-13T00:27:51;19.70;1.00
3308;DHT22;1666;48.898;9.182;2023-07-13T00:30:21;19.70;1.00
3308;DHT22;1666;48.898;9.182;2023-07-13T00:32:52;19.60;1.00
3308;DHT22;1666;48.898;9.182;2023-07-13T00:35:45;19.60;1.00
3308;DHT22;1666;48.898;9.182;2023-07-13T00:38:15;19.60;1.00
3308;DHT22;1666;48.898;9.182;2023-07-13T00:40:45;19.50;1.00
3308;DHT22;1666;48.898;9.182;2023-07-13T00:43:18;19.40;1.00
3308;DHT22;1666;48.898;9.182;2023-07-13T00:46:11;19.40;1.00
3308;DHT22;1666;48.898;9.182;2023-07-13T00:48:43;19.40;1.00
3308;DHT22;1666;48.898;9.182;2023-07-13T00:51:20;19.30;1.00
3308;DHT22;1666;48.898;9.182;2023-07-13T00:53:53;19.20;1.00
3308;DHT22;1666;48.898;9.182;2023-07-13T00:56:24;19.20;1.00
3308;DHT22;1666;48.898;9.182;2023-07-13T00:58:55;19.30;1.00
3308;DHT22;1666;48.898;9.182;2023-07-13T01:01:26;19.30;1.00
3308;DHT22;1666;48.898;9.182;2023-07-13T01:03:56;19.40;1.00
3308;DHT22;1666;48.898;9.182;2023-07-13T01:06:29;19.20;1.00
3308;DHT22;1666;48.898;9.182;2023-07-13T01:08:59;19.10;1.00
3308;DHT22;1666;48.898;9.182;2023-07-13T01:11:29;19.10;1.00
3308;DHT22;1666;48.898;9.182;2023-07-13T01:13:59;19.00;1.00
3308;DHT22;1666;48.898;9.182;2023-07-13T01:16:32;18.90;1.00
3308;DHT22;1666;48.898;9.182;2023-07-13T01:19:10;18.90;1.00
3308;DHT22;1666;48.898;9.182;2023-07-13T01:21:43;18.90;1.00
3308;DHT22;1666;48.898;9.182;2023-07-13T01:24:13;18.80;1.00
3308;DHT22;1666;48.898;9.182;2023-07-13T01:26:43;18.90;1.00
3308;DHT22;1666;48.898;9.182;2023-07-13T01:29:13;18.90;1.00
3308;DHT22;1666;48.898;9.182;2023-07-13T01:31:43;18.90;1.00
3308;DHT22;1666;48.898;9.182;2023-07-13T01:34:14;18.90;1.00
3308;DHT22;1666;48.898;9.182;2023-07-13T01:36:46;19.00;1.00
3308;DHT22;1666;48.898;9.182;2023-07-13T01:39:16;18.90;1.00
3308;DHT22;1666;48.898;9.182;2023-07-13T01:41:46;18.70;1.00
3308;DHT22;1666;48.898;9.182;2023-07-13T01:44:16;18.70;1.00
3308;DHT22;1666;48.898;9.182;2023-07-13T01:46:46;18.60;1.00
3308;DHT22;1666;48.898;9.182;2023-07-13T01:49:16;18.60;1.00
3308;DHT22;1666;48.898;9.182;2023-07-13T01:51:49;18.60;1.00
3308;DHT22;1666;48.898;9.182;2023-07-13T01:54:18;18.50;1.00
3308;DHT22;1666;48.898;9.182;2023-07-13T01:56:48;18.50;1.00
3308;DHT22;1666;48.898;9.182;2023-07-13T01:59:18;18.50;1.00
3308;DHT22;1666;48.898;9.182;2023-07-13T02:01:48;18.50;1.00
3308;DHT22;1666;48.898;9.182;2023-07-13T02:04:18;18.50;1.00
3308;DHT22;1666;48.898;9.182;2023-07-13T02:06:51;18.40;1.00
3308;DHT22;1666;48.898;9.182;2023-07-13T02:09:22;18.40;1.00
3308;DHT22;1666;48.898;9.182;2023-07-13T02:11:52;18.30;1.00
3308;DHT22;1666;48.898;9.182;2023-07-13T02:14:22;18.30;1.00
3308;DHT22;1666;48.898;9.182;2023-07-13T02:16:52;18.20;1.00
3308;DHT22;1666;48.898;9.182;2023-07-13T02:19:22;18.20;1.00
3308;DHT22;1666;48.898;9.182;2023-07-13T02:21:54;18.20;1.00
3308;DHT22;1666;48.898;9.182;2023-07-13T02:24:24;18.30;1.00
3308;DHT22;1666;48.898;9.182;2023-07-13T02:26:54;18.20;1.00
3308;DHT22;1666;48.898;9.182;2023-07-13T02:29:24;18.00;1.00
3308;DHT22;1666;48.898;9.182;2023-07-13T02:31:54;18.00;1.00
3308;DHT22;1666;48.898;9.182;2023-07-13T02:34:24;18.00;1.00
3308;DHT22;1666;48.898;9.182;2023-07-13T02:36:57;17.90;1.00
3308;DHT22;1666;48.898;9.182;2023-07-13T02:39:27;17.80;1.00
3308;DHT22;1666;48.898;9.182;2023-07-13T02:42:00;17.90;1.00
3308;DHT22;1666;48.898;9.182;2023-07-13T02:44:30;17.90;1.00
3308;DHT22;1666;48.898;9.182;2023-07-13T02:47:00;17.90;1.00
3308;DHT22;1666;48.898;9.182;2023-07-13T02:49:30;17.80;1.00
3308;DHT22;1666;48.898;9.182;2023-07-13T02:52:04;17.80;1.00
3308;DHT22;1666;48.898;9.182;2023-07-13T02:54:34;17.80;1.00
3308;DHT22;1666;48.898;9.182;2023-07-13T02:57:05;17.90;1.00
3308;DHT22;1666;48.898;9.182;2023-07-13T02:59:35;18.00;1.00
3308;DHT22;1666;48.898;9.182;2023-07-13T03:02:05;17.80;1.00
3308;DHT22;1666;48.898;9.182;2023-07-13T03:04:35;17.90;1.00
3308;DHT22;1666;48.898;9.182;2023-07-13T03:07:09;17.90;1.00
3308;DHT22;1666;48.898;9.182;2023-07-13T03:09:40;17.80;1.00
3308;DHT22;1666;48.898;9.182;2023-07-13T03:12:10;17.80;1.00
3308;DHT22;1666;48.898;9.182;2023-07-13T03:14:40;17.80;1.00
3308;DHT22;1666;48.898;9.182;2023-07-13T03:17:10;17.80;1.00
3308;DHT22;1666;48.898;9.182;2023-07-13T03:19:40;17.80;1.00
3308;DHT22;1666;48.898;9.182;2023-07-13T03:22:13;17.80;1.00
3308;DHT22;1666;48.898;9.182;2023-07-13T03:24:46;17.90;1.00
3308;DHT22;1666;48.898;9.182;2023-07-13T03:27:16;17.90;1.00
3308;DHT22;1666;48.898;9.182;2023-07-13T03:29:46;18.00;1.00
3308;DHT22;1666;48.898;9.182;2023-07-13T03:32:16;18.00;1.00
3308;DHT22;1666;48.898;9.182;2023-07-13T03:34:46;18.00;1.00
3308;DHT22;1666;48.898;9.182;2023-07-13T03:37:19;18.00;1.00
3308;DHT22;1666;48.898;9.182;2023-07-13T03:39:49;18.00;1.00
3308;DHT22;1666;48.898;9.182;2023-07-13T03:42:19;18.10;1.00
3308;DHT22;1666;48.898;9.182;2023-07-13T03:44:49;18.10;1.00
3308;DHT22;1666;48.898;9.182;2023-07-13T03:47:19;18.20;1.00
3308;DHT22;1666;48.898;9.182;2023-07-13T03:49:49;18.30;1.00
3308;DHT22;1666;48.898;9.182;2023-07-13T03:52:23;18.40;1.00
3308;DHT22;1666;48.898;9.182;2023-07-13T03:54:53;18.40;1.00
3308;DHT22;1666;48.898;9.182;2023-07-13T03:57:23;18.50;1.00
3308;DHT22;1666;48.898;9.182;2023-07-13T03:59:52;18.90;1.00
3308;DHT22;1666;48.898;9.182;2023-07-13T04:02:22;19.60;1.00
3308;DHT22;1666;48.898;9.182;2023-07-13T04:04:52;19.20;1.00
3308;DHT22;1666;48.898;9.182;2023-07-13T04:07:25;18.80;1.00
3308;DHT22;1666;48.898;9.182;2023-07-13T04:09:55;18.50;1.00
3308;DHT22;1666;48.898;9.182;2023-07-13T04:12:25;18.50;1.00
3308;DHT22;1666;48.898;9.182;2023-07-13T04:14:57;18.50;1.00
3308;DHT22;1666;48.898;9.182;2023-07-13T04:17:27;18.40;1.00
3308;DHT22;1666;48.898;9.182;2023-07-13T04:19:57;18.30;1.00
3308;DHT22;1666;48.898;9.182;2023-07-13T04:22:29;18.30;1.00
3308;DHT22;1666;48.898;9.182;2023-07-13T04:24:59;18.20;1.00
3308;DHT22;1666;48.898;9.182;2023-07-13T04:27:29;18.30;1.00
3308;DHT22;1666;48.898;9.182;2023-07-13T04:29:59;18.10;1.00
3308;DHT22;1666;48.898;9.182;2023-07-13T04:32:29;18.10;1.00
3308;DHT22;1666;48.898;9.182;2023-07-13T04:34:59;18.30;1.00
3308;DHT22;1666;48.898;9.182;2023-07-13T04:37:32;18.20;1.00
3308;DHT22;1666;48.898;9.182;2023-07-13T04:40:03;18.20;1.00
3308;DHT22;1666;48.898;9.182;2023-07-13T04:42:33;18.30;1.00
3308;DHT22;1666;48.898;9.182;2023-07-13T04:45:07;18.20;1.00
3308;DHT22;1666;48.898;9.182;2023-07-13T04:47:37;18.30;1.00
3308;DHT22;1666;48.898;9.182;2023-07-13T04:50:08;18.20;1.00
3308;DHT22;1666;48.898;9.182;2023-07-13T04:52:41;18.20;1.00
3308;DHT22;1666;48.898;9.182;2023-07-13T04:55:11;18.30;1.00
3308;DHT22;1666;48.898;9.182;2023-07-13T04:57:41;18.20;1.00
3308;DHT22;1666;48.898;9.182;2023-07-13T05:00:12;18.10;1.00
3308;DHT22;1666;48.898;9.182;2023-07-13T05:02:44;18.20;1.00
3308;DHT22;1666;48.898;9.182;2023-07-13T05:05:12;18.40;1.00
3308;DHT22;1666;48.898;9.182;2023-07-13T05:07:45;18.60;1.00
3308;DHT22;1666;48.898;9.182;2023-07-13T05:10:15;19.40;1.00
3308;DHT22;1666;48.898;9.182;2023-07-13T05:12:45;21.10;1.00
3308;DHT22;1666;48.898;9.182;2023-07-13T05:15:15;22.40;1.00
3308;DHT22;1666;48.898;9.182;2023-07-13T05:17:48;23.50;1.00
3308;DHT22;1666;48.898;9.182;2023-07-13T05:20:19;21.80;1.00
3308;DHT22;1666;48.898;9.182;2023-07-13T05:22:51;21.00;1.00
3308;DHT22;1666;48.898;9.182;2023-07-13T05:25:21;20.40;1.00
3308;DHT22;1666;48.898;9.182;2023-07-13T05:27:51;19.90;1.00
3308;DHT22;1666;48.898;9.182;2023-07-13T05:30:21;19.60;1.00
3308;DHT22;1666;48.898;9.182;2023-07-13T05:32:51;19.30;1.00
3308;DHT22;1666;48.898;9.182;2023-07-13T05:35:21;19.30;1.00
3308;DHT22;1666;48.898;9.182;2023-07-13T05:37:54;19.40;1.00
3308;DHT22;1666;48.898;9.182;2023-07-13T05:40:24;19.30;1.00
3308;DHT22;1666;48.898;9.182;2023-07-13T05:42:54;19.20;1.00
3308;DHT22;1666;48.898;9.182;2023-07-13T05:45:24;19.10;1.00
3308;DHT22;1666;48.898;9.182;2023-07-13T05:47:53;19.40;1.00
3308;DHT22;1666;48.898;9.182;2023-07-13T05:50:23;20.50;1.00
3308;DHT22;1666;48.898;9.182;2023-07-13T05:52:56;19.90;1.00
3308;DHT22;1666;48.898;9.182;2023-07-13T05:55:26;19.50;1.00
3308;DHT22;1666;48.898;9.182;2023-07-13T05:57:56;19.70;1.00
3308;DHT22;1666;48.898;9.182;2023-07-13T06:00:27;19.90;1.00
3308;DHT22;1666;48.898;9.182;2023-07-13T06:02:57;19.70;1.00
3308;DHT22;1666;48.898;9.182;2023-07-13T06:05:27;19.70;1.00
3308;DHT22;1666;48.898;9.182;2023-07-13T06:08:00;20.90;1.00
3308;DHT22;1666;48.898;9.182;2023-07-13T06:10:32;22.20;1.00
3308;DHT22;1666;48.898;9.182;2023-07-13T06:13:02;23.10;1.00
3308;DHT22;1666;48.898;9.182;2023-07-13T06:15:32;21.90;1.00
3308;DHT22;1666;48.898;9.182;2023-07-13T06:18:03;20.50;1.00
3308;DHT22;1666;48.898;9.182;2023-07-13T06:20:34;21.80;1.00
3308;DHT22;1666;48.898;9.182;2023-07-13T06:23:06;21.30;1.00
3308;DHT22;1666;48.898;9.182;2023-07-13T06:25:36;21.00;1.00
3308;DHT22;1666;48.898;9.182;2023-07-13T06:28:06;21.20;1.00
3308;DHT22;1666;48.898;9.182;2023-07-13T06:30:38;21.10;1.00
3308;DHT22;1666;48.898;9.182;2023-07-13T06:33:08;20.70;1.00
3308;DHT22;1666;48.898;9.182;2023-07-13T06:35:38;21.40;1.00
3308;DHT22;1666;48.898;9.182;2023-07-13T06:38:10;21.40;1.00
3308;DHT22;1666;48.898;9.182;2023-07-13T06:40:41;23.30;1.00
3308;DHT22;1666;48.898;9.182;2023-07-13T06:43:11;24.20;1.00
3308;DHT22;1666;48.898;9.182;2023-07-13T06:45:43;24.30;1.00
3308;DHT22;1666;48.898;9.182;2023-07-13T06:48:14;24.20;1.00
3308;DHT22;1666;48.898;9.182;2023-07-13T06:50:45;23.90;1.00
3308;DHT22;1666;48.898;9.182;2023-07-13T06:53:19;22.60;1.00
3308;DHT22;1666;48.898;9.182;2023-07-13T06:55:49;21.80;1.00
3308;DHT22;1666;48.898;9.182;2023-07-13T06:58:21;22.00;1.00
3308;DHT22;1666;48.898;9.182;2023-07-13T07:00:51;21.80;1.00
3308;DHT22;1666;48.898;9.182;2023-07-13T07:03:22;21.30;1.00
3308;DHT22;1666;48.898;9.182;2023-07-13T07:05:52;21.00;1.00
3308;DHT22;1666;48.898;9.182;2023-07-13T07:08:24;20.90;1.00
3308;DHT22;1666;48.898;9.182;2023-07-13T07:10:54;21.30;1.00
3308;DHT22;1666;48.898;9.182;2023-07-13T07:13:24;21.70;1.00
3308;DHT22;1666;48.898;9.182;2023-07-13T07:15:55;21.60;1.00
3308;DHT22;1666;48.898;9.182;2023-07-13T07:18:27;22.00;1.00
3308;DHT22;1666;48.898;9.182;2023-07-13T07:20:57;21.40;1.00
3308;DHT22;1666;48.898;9.182;2023-07-13T07:23:32;21.70;1.00
3308;DHT22;1666;48.898;9.182;2023-07-13T07:26:02;22.30;1.00
3308;DHT22;1666;48.898;9.182;2023-07-13T07:28:32;22.60;1.00
3308;DHT22;1666;48.898;9.182;2023-07-13T07:31:05;22.40;1.00
3308;DHT22;1666;48.898;9.182;2023-07-13T07:33:38;23.00;1.00
3308;DHT22;1666;48.898;9.182;2023-07-13T07:36:08;22.80;1.00
3308;DHT22;1666;48.898;9.182;2023-07-13T07:38:44;21.80;1.00
3308;DHT22;1666;48.898;9.182;2023-07-13T07:41:14;22.30;1.00
3308;DHT22;1666;48.898;9.182;2023-07-13T07:43:47;23.00;1.00
3308;DHT22;1666;48.898;9.182;2023-07-13T07:46:17;22.60;1.00
3308;DHT22;1666;48.898;9.182;2023-07-13T07:48:47;22.70;1.00
3308;DHT22;1666;48.898;9.182;2023-07-13T07:51:17;22.50;1.00
3308;DHT22;1666;48.898;9.182;2023-07-13T07:53:49;22.00;1.00
3308;DHT22;1666;48.898;9.182;2023-07-13T07:56:19;22.10;1.00
3308;DHT22;1666;48.898;9.182;2023-07-13T07:58:52;23.00;1.00
3308;DHT22;1666;48.898;9.182;2023-07-13T08:01:25;22.70;1.00
3308;DHT22;1666;48.898;9.182;2023-07-13T08:03:58;22.90;1.00
3308;DHT22;1666;48.898;9.182;2023-07-13T08:06:31;21.90;1.00
3308;DHT22;1666;48.898;9.182;2023-07-13T08:09:07;22.70;1.00
3308;DHT22;1666;48.898;9.182;2023-07-13T08:11:37;22.10;1.00
3308;DHT22;1666;48.898;9.182;2023-07-13T08:14:10;22.60;1.00
3308;DHT22;1666;48.898;9.182;2023-07-13T08:16:40;23.10;1.00
3308;DHT22;1666;48.898;9.182;2023-07-13T08:19:10;23.10;1.00
3308;DHT22;1666;48.898;9.182;2023-07-13T08:21:40;23.50;1.00
3308;DHT22;1666;48.898;9.182;2023-07-13T08:24:12;23.10;1.00
3308;DHT22;1666;48.898;9.182;2023-07-13T08:26:42;22.60;1.00
3308;DHT22;1666;48.898;9.182;2023-07-13T08:29:12;22.70;1.00
3308;DHT22;1666;48.898;9.182;2023-07-13T08:31:42;22.70;1.00
3308;DHT22;1666;48.898;9.182;2023-07-13T08:34:12;22.80;1.00
3308;DHT22;1666;48.898;9.182;2023-07-13T08:36:43;22.80;1.00
3308;DHT22;1666;48.898;9.182;2023-07-13T08:39:16;23.10;1.00
3308;DHT22;1666;48.898;9.182;2023-07-13T08:41:47;23.40;1.00
3308;DHT22;1666;48.898;9.182;2023-07-13T08:44:24;23.40;1.00
3308;DHT22;1666;48.898;9.182;2023-07-13T08:46:56;23.10;1.00
3308;DHT22;1666;48.898;9.182;2023-07-13T08:49:28;22.60;1.00
3308;DHT22;1666;48.898;9.182;2023-07-13T08:52:01;22.70;1.00
3308;DHT22;1666;48.898;9.182;2023-07-13T08:54:36;23.40;1.00
3308;DHT22;1666;48.898;9.182;2023-07-13T08:57:12;23.20;1.00
3308;DHT22;1666;48.898;9.182;2023-07-13T08:59:43;22.60;1.00
3308;DHT22;1666;48.898;9.182;2023-07-13T09:02:22;23.30;1.00
3308;DHT22;1666;48.898;9.182;2023-07-13T09:04:57;24.30;1.00
3308;DHT22;1666;48.898;9.182;2023-07-13T09:07:42;24.20;1.00
3308;DHT22;1666;48.898;9.182;2023-07-13T09:10:21;22.90;1.00
3308;DHT22;1666;48.898;9.182;2023-07-13T09:13:04;23.40;1.00
3308;DHT22;1666;48.898;9.182;2023-07-13T09:15:39;24.10;1.00
3308;DHT22;1666;48.898;9.182;2023-07-13T09:18:14;24.40;1.00
3308;DHT22;1666;48.898;9.182;2023-07-13T09:20:49;24.30;1.00
3308;DHT22;1666;48.898;9.182;2023-07-13T09:23:22;24.50;1.00
3308;DHT22;1666;48.898;9.182;2023-07-13T09:26:01;24.80;1.00
3308;DHT22;1666;48.898;9.182;2023-07-13T09:28:37;23.50;1.00
3308;DHT22;1666;48.898;9.182;2023-07-13T09:31:11;23.70;1.00
3308;DHT22;1666;48.898;9.182;2023-07-13T09:33:43;24.20;1.00
3308;DHT22;1666;48.898;9.182;2023-07-13T09:36:19;23.80;1.00
3308;DHT22;1666;48.898;9.182;2023-07-13T09:38:58;23.80;1.00
3308;DHT22;1666;48.898;9.182;2023-07-13T09:41:41;23.90;1.00
3308;DHT22;1666;48.898;9.182;2023-07-13T09:44:16;25.00;1.00
3308;DHT22;1666;48.898;9.182;2023-07-13T09:46:52;24.30;1.00
3308;DHT22;1666;48.898;9.182;2023-07-13T09:49:24;24.40;1.00
3308;DHT22;1666;48.898;9.182;2023-07-13T09:51:58;23.40;1.00
3308;DHT22;1666;48.898;9.182;2023-07-13T09:54:33;23.20;1.00
3308;DHT22;1666;48.898;9.182;2023-07-13T09:57:13;23.90;1.00
3308;DHT22;1666;48.898;9.182;2023-07-13T09:59:45;24.30;1.00
3308;DHT22;1666;48.898;9.182;2023-07-13T10:02:27;23.80;1.00
3308;DHT22;1666;48.898;9.182;2023-07-13T10:05:01;24.50;1.00
3308;DHT22;1666;48.898;9.182;2023-07-13T10:07:37;24.70;1.00
3308;DHT22;1666;48.898;9.182;2023-07-13T10:10:14;25.00;1.00
3308;DHT22;1666;48.898;9.182;2023-07-13T10:12:47;23.50;1.00
3308;DHT22;1666;48.898;9.182;2023-07-13T10:15:20;23.80;1.00
3308;DHT22;1666;48.898;9.182;2023-07-13T10:17:52;24.10;1.00
3308;DHT22;1666;48.898;9.182;2023-07-13T10:20:26;24.20;1.00
3308;DHT22;1666;48.898;9.182;2023-07-13T10:23:00;24.80;1.00
3308;DHT22;1666;48.898;9.182;2023-07-13T10:25:33;24.50;1.00
3308;DHT22;1666;48.898;9.182;2023-07-13T10:28:25;24.00;1.00
3308;DHT22;1666;48.898;9.182;2023-07-13T10:30:58;24.60;1.00
3308;DHT22;1666;48.898;9.182;2023-07-13T10:33:30;24.80;1.00
3308;DHT22;1666;48.898;9.182;2023-07-13T10:36:08;24.70;1.00
3308;DHT22;1666;48.898;9.182;2023-07-13T10:38:45;24.20;1.00
3308;DHT22;1666;48.898;9.182;2023-07-13T10:41:18;24.60;1.00
3308;DHT22;1666;48.898;9.182;2023-07-13T10:43:53;24.70;1.00
3308;DHT22;1666;48.898;9.182;2023-07-13T10:46:26;25.20;1.00
3308;DHT22;1666;48.898;9.182;2023-07-13T10:48:59;25.00;1.00
3308;DHT22;1666;48.898;9.182;2023-07-13T10:51:31;25.40;1.00
3308;DHT22;1666;48.898;9.182;2023-07-13T10:54:15;25.20;1.00
3308;DHT22;1666;48.898;9.182;2023-07-13T10:56:53;24.50;1.00
3308;DHT22;1666;48.898;9.182;2023-07-13T10:59:39;24.50;1.00
3308;DHT22;1666;48.898;9.182;2023-07-13T11:02:13;24.40;1.00
3308;DHT22;1666;48.898;9.182;2023-07-13T11:04:47;24.70;1.00
3308;DHT22;1666;48.898;9.182;2023-07-13T11:07:20;24.90;1.00
3308;DHT22;1666;48.898;9.182;2023-07-13T11:09:53;25.10;1.00
3308;DHT22;1666;48.898;9.182;2023-07-13T11:12:53;24.70;1.00
3308;DHT22;1666;48.898;9.182;2023-07-13T11:15:32;24.70;1.00
3308;DHT22;1666;48.898;9.182;2023-07-13T11:18:21;25.60;1.00
3308;DHT22;1666;48.898;9.182;2023-07-13T11:20:52;25.60;1.00
3308;DHT22;1666;48.898;9.182;2023-07-13T11:24:03;25.90;1.00
3308;DHT22;1666;48.898;9.182;2023-07-13T11:26:41;25.60;1.00
3308;DHT22;1666;48.898;9.182;2023-07-13T11:29:25;25.50;1.00
3308;DHT22;1666;48.898;9.182;2023-07-13T11:32:00;26.00;1.00
3308;DHT22;1666;48.898;9.182;2023-07-13T11:34:35;26.00;1.00
3308;DHT22;1666;48.898;9.182;2023-07-13T11:37:08;26.30;1.00
3308;DHT22;1666;48.898;9.182;2023-07-13T11:39:43;26.30;1.00
3308;DHT22;1666;48.898;9.182;2023-07-13T11:42:16;25.60;1.00
3308;DHT22;1666;48.898;9.182;2023-07-13T11:44:48;25.50;1.00
3308;DHT22;1666;48.898;9.182;2023-07-13T11:47:40;25.40;1.00
3308;DHT22;1666;48.898;9.182;2023-07-13T11:50:19;25.60;1.00
3308;DHT22;1666;48.898;9.182;2023-07-13T11:52:51;25.40;1.00
3308;DHT22;1666;48.898;9.182;2023-07-13T11:55:23;24.90;1.00
3308;DHT22;1666;48.898;9.182;2023-07-13T11:57:57;25.10;1.00
3308;DHT22;1666;48.898;9.182;2023-07-13T12:00:30;25.60;1.00
3308;DHT22;1666;48.898;9.182;2023-07-13T12:03:04;25.00;1.00
3308;DHT22;1666;48.898;9.182;2023-07-13T12:05:36;25.40;1.00
3308;DHT22;1666;48.898;9.182;2023-07-13T12:08:10;24.80;1.00
3308;DHT22;1666;48.898;9.182;2023-07-13T12:10:56;24.90;1.00
3308;DHT22;1666;48.898;9.182;2023-07-13T12:13:27;25.60;1.00
3308;DHT22;1666;48.898;9.182;2023-07-13T12:15:58;25.80;1.00
3308;DHT22;1666;48.898;9.182;2023-07-13T12:18:31;25.50;1.00
3308;DHT22;1666;48.898;9.182;2023-07-13T12:21:02;25.30;1.00
3308;DHT22;1666;48.898;9.182;2023-07-13T12:23:35;25.40;1.00
3308;DHT22;1666;48.898;9.182;2023-07-13T12:26:06;25.20;1.00
3308;DHT22;1666;48.898;9.182;2023-07-13T12:28:44;25.60;1.00
3308;DHT22;1666;48.898;9.182;2023-07-13T12:31:30;26.50;1.00
3308;DHT22;1666;48.898;9.182;2023-07-13T12:34:07;25.80;1.00
3308;DHT22;1666;48.898;9.182;2023-07-13T12:36:40;25.10;1.00
3308;DHT22;1666;48.898;9.182;2023-07-13T12:39:19;25.80;1.00
3308;DHT22;1666;48.898;9.182;2023-07-13T12:41:51;26.30;1.00
3308;DHT22;1666;48.898;9.182;2023-07-13T12:44:26;26.50;1.00
3308;DHT22;1666;48.898;9.182;2023-07-13T12:47:04;26.50;1.00
3308;DHT22;1666;48.898;9.182;2023-07-13T12:49:48;25.90;1.00
3308;DHT22;1666;48.898;9.182;2023-07-13T12:52:22;26.60;1.00
3308;DHT22;1666;48.898;9.182;2023-07-13T12:54:53;26.60;1.00
3308;DHT22;1666;48.898;9.182;2023-07-13T12:57:32;26.30;1.00
3308;DHT22;1666;48.898;9.182;2023-07-13T13:00:21;26.60;1.00
3308;DHT22;1666;48.898;9.182;2023-07-13T13:02:53;26.10;1.00
3308;DHT22;1666;48.898;9.182;2023-07-13T13:05:46;26.20;1.00
3308;DHT22;1666;48.898;9.182;2023-07-13T13:08:16;26.50;1.00
3308;DHT22;1666;48.898;9.182;2023-07-13T13:10:47;26.60;1.00
3308;DHT22;1666;48.898;9.182;2023-07-13T13:13:17;26.60;1.00
3308;DHT22;1666;48.898;9.182;2023-07-13T13:15:47;26.00;1.00
3308;DHT22;1666;48.898;9.182;2023-07-13T13:18:18;26.10;1.00
3308;DHT22;1666;48.898;9.182;2023-07-13T13:20:51;25.60;1.00
3308;DHT22;1666;48.898;9.182;2023-07-13T13:23:21;26.00;1.00
3308;DHT22;1666;48.898;9.182;2023-07-13T13:25:52;26.70;1.00
3308;DHT22;1666;48.898;9.182;2023-07-13T13:28:23;26.30;1.00
3308;DHT22;1666;48.898;9.182;2023-07-13T13:30:53;26.40;1.00
3308;DHT22;1666;48.898;9.182;2023-07-13T13:33:26;26.50;1.00
3308;DHT22;1666;48.898;9.182;2023-07-13T13:36:00;26.30;1.00
3308;DHT22;1666;48.898;9.182;2023-07-13T13:38:31;26.30;1.00
3308;DHT22;1666;48.898;9.182;2023-07-13T13:41:01;25.80;1.00
3308;DHT22;1666;48.898;9.182;2023-07-13T13:43:32;26.10;1.00
3308;DHT22;1666;48.898;9.182;2023-07-13T13:46:02;26.50;1.00
3308;DHT22;1666;48.898;9.182;2023-07-13T13:48:36;26.50;1.00
3308;DHT22;1666;48.898;9.182;2023-07-13T13:51:16;27.00;1.00
3308;DHT22;1666;48.898;9.182;2023-07-13T13:53:47;26.00;1.00
3308;DHT22;1666;48.898;9.182;2023-07-13T13:56:19;26.10;1.00
3308;DHT22;1666;48.898;9.182;2023-07-13T13:58:49;26.10;1.00
3308;DHT22;1666;48.898;9.182;2023-07-13T14:01:20;26.60;1.00
3308;DHT22;1666;48.898;9.182;2023-07-13T14:03:51;26.20;1.00
3308;DHT22;1666;48.898;9.182;2023-07-13T14:06:24;26.80;1.00
3308;DHT22;1666;48.898;9.182;2023-07-13T14:08:54;27.20;1.00
3308;DHT22;1666;48.898;9.182;2023-07-13T14:11:24;26.80;1.00
3308;DHT22;1666;48.898;9.182;2023-07-13T14:13:56;26.50;1.00
3308;DHT22;1666;48.898;9.182;2023-07-13T14:16:28;26.30;1.00
3308;DHT22;1666;48.898;9.182;2023-07-13T14:18:59;25.90;1.00
3308;DHT22;1666;48.898;9.182;2023-07-13T14:21:32;26.00;1.00
3308;DHT22;1666;48.898;9.182;2023-07-13T14:24:02;26.70;1.00
3308;DHT22;1666;48.898;9.182;2023-07-13T14:26:36;26.30;1.00
3308;DHT22;1666;48.898;9.182;2023-07-13T14:29:12;26.70;1.00
3308;DHT22;1666;48.898;9.182;2023-07-13T14:31:46;26.20;1.00
3308;DHT22;1666;48.898;9.182;2023-07-13T14:34:16;26.40;1.00
3308;DHT22;1666;48.898;9.182;2023-07-13T14:36:50;26.20;1.00
3308;DHT22;1666;48.898;9.182;2023-07-13T14:39:22;26.00;1.00
3308;DHT22;1666;48.898;9.182;2023-07-13T14:41:53;26.30;1.00
3308;DHT22;1666;48.898;9.182;2023-07-13T14:44:26;26.20;1.00
3308;DHT22;1666;48.898;9.182;2023-07-13T14:46:59;26.00;1.00
3308;DHT22;1666;48.898;9.182;2023-07-13T14:49:33;26.50;1.00
3308;DHT22;1666;48.898;9.182;2023-07-13T14:52:11;26.60;1.00
3308;DHT22;1666;48.898;9.182;2023-07-13T14:54:42;26.30;1.00
3308;DHT22;1666;48.898;9.182;2023-07-13T14:57:14;26.60;1.00
3308;DHT22;1666;48.898;9.182;2023-07-13T14:59:46;26.60;1.00
3308;DHT22;1666;48.898;9.182;2023-07-13T15:02:17;26.90;1.00
3308;DHT22;1666;48.898;9.182;2023-07-13T15:04:48;26.40;1.00
3308;DHT22;1666;48.898;9.182;2023-07-13T15:07:20;25.80;1.00
3308;DHT22;1666;48.898;9.182;2023-07-13T15:09:51;26.10;1.00
3308;DHT22;1666;48.898;9.182;2023-07-13T15:12:21;26.30;1.00
3308;DHT22;1666;48.898;9.182;2023-07-13T15:14:51;26.30;1.00
3308;DHT22;1666;48.898;9.182;2023-07-13T15:17:27;26.30;1.00
3308;DHT22;1666;48.898;9.182;2023-07-13T15:19:57;26.40;1.00
3308;DHT22;1666;48.898;9.182;2023-07-13T15:22:31;26.10;1.00
3308;DHT22;1666;48.898;9.182;2023-07-13T15:25:01;25.90;1.00
3308;DHT22;1666;48.898;9.182;2023-07-13T15:27:33;25.90;1.00
3308;DHT22;1666;48.898;9.182;2023-07-13T15:30:05;26.30;1.00
3308;DHT22;1666;48.898;9.182;2023-07-13T15:32:36;26.50;1.00
3308;DHT22;1666;48.898;9.182;2023-07-13T15:37:46;26.10;1.00
3308;DHT22;1666;48.898;9.182;2023-07-13T15:40:15;26.00;1.00
3308;DHT22;1666;48.898;9.182;2023-07-13T15:42:45;26.00;1.00
3308;DHT22;1666;48.898;9.182;2023-07-13T15:45:16;26.20;1.00
3308;DHT22;1666;48.898;9.182;2023-07-13T15:47:46;25.70;1.00
3308;DHT22;1666;48.898;9.182;2023-07-13T15:50:17;25.90;1.00
3308;DHT22;1666;48.898;9.182;2023-07-13T15:52:52;26.30;1.00
3308;DHT22;1666;48.898;9.182;2023-07-13T15:58:01;26.00;1.00
3308;DHT22;1666;48.898;9.182;2023-07-13T16:00:29;25.70;1.00
3308;DHT22;1666;48.898;9.182;2023-07-13T16:02:58;25.80;1.00
3308;DHT22;1666;48.898;9.182;2023-07-13T16:05:27;25.80;1.00
3308;DHT22;1666;48.898;9.182;2023-07-13T16:07:57;25.90;1.00
3308;DHT22;1666;48.898;9.182;2023-07-13T16:10:30;26.10;1.00
3308;DHT22;1666;48.898;9.182;2023-07-13T16:13:02;26.00;1.00
3308;DHT22;1666;48.898;9.182;2023-07-13T16:18:11;25.90;1.00
3308;DHT22;1666;48.898;9.182;2023-07-13T16:20:42;26.20;1.00
3308;DHT22;1666;48.898;9.182;2023-07-13T16:23:12;26.50;1.00
3308;DHT22;1666;48.898;9.182;2023-07-13T16:25:41;26.50;1.00
3308;DHT22;1666;48.898;9.182;2023-07-13T16:28:11;26.10;1.00
3308;DHT22;1666;48.898;9.182;2023-07-13T16:30:40;26.00;1.00
3308;DHT22;1666;48.898;9.182;2023-07-13T16:33:11;25.60;1.00
3308;DHT22;1666;48.898;9.182;2023-07-13T16:38:21;25.60;1.00
3308;DHT22;1666;48.898;9.182;2023-07-13T16:40:50;25.80;1.00
3308;DHT22;1666;48.898;9.182;2023-07-13T16:43:19;26.40;1.00
3308;DHT22;1666;48.898;9.182;2023-07-13T16:45:50;25.80;1.00
3308;DHT22;1666;48.898;9.182;2023-07-13T16:48:22;26.10;1.00
3308;DHT22;1666;48.898;9.182;2023-07-13T16:50:55;26.20;1.00
3308;DHT22;1666;48.898;9.182;2023-07-13T16:53:29;26.20;1.00
3308;DHT22;1666;48.898;9.182;2023-07-13T16:56:01;26.00;1.00
3308;DHT22;1666;48.898;9.182;2023-07-13T16:58:33;25.40;1.00
3308;DHT22;1666;48.898;9.182;2023-07-13T17:01:04;25.90;1.00